CW3508 Weather Reports


Display with metric or nautical units.
time (UTC)temp
F
wind
direction
speed
MPH
gust
MPH
rain 1hr
in
rain 24hr
in
rain mn
in
humidity
%
barometer
mb
20210918190045 75 279 0.0 0.0 0.13 1.71 1.68 98 1015.5
20210918185529 75 279 0.0 1.0 0.13 1.71 1.68 98 1015.8
20210918185019 75 279 0.0 1.0 0.12 1.70 1.67 98 1015.8
20210918184532 75 279 0.0 0.0 0.10 1.68 1.65 98 1015.8
20210918183520 75 279 0.0 0.0 0.07 1.65 1.62 98 1015.8
20210918183022 75 279 0.0 1.0 0.06 1.64 1.61 98 1015.8
20210918182529 75 279 0.0 1.0 0.04 1.62 1.59 98 1015.8
20210918182025 75 279 0.0 1.0 0.04 1.61 1.58 98 1015.8
20210918181534 75 279 0.0 1.0 0.03 1.60 1.57 98 1015.8
20210918181041 75 279 0.0 0.0 0.03 1.60 1.57 98 1016.1
20210918180543 75 279 0.0 0.0 0.01 1.58 1.55 98 1016.1
20210918180021 75 279 0.0 0.0 0.01 1.58 1.55 98 1016.1
20210918175522 75 279 0.0 0.0 0.01 1.58 1.55 99 1016.0
20210918175026 75 279 0.0 0.0 0.01 1.58 1.55 99 1016.0
20210918174521 75 279 0.0 0.0 0.01 1.58 1.55 99 1016.0
20210918174029 75 279 0.0 0.0 0.01 1.58 1.55 99 1016.1
20210918173519 75 279 0.0 0.0 0.02 1.58 1.55 99 1016.1
20210918173020 75 279 0.0 0.0 0.02 1.58 1.55 99 1016.1
20210918172531 75 279 0.0 1.0 0.02 1.58 1.55 99 1016.3
20210918172033 75 279 0.0 1.0 0.01 1.57 1.54 99 1016.3
20210918171522 75 279 0.0 1.0 0.04 1.57 1.54 99 1016.3
20210918171024 75 282 0.0 1.0 0.06 1.57 1.54 99 1016.5
20210918170546 75 282 0.0 1.0 0.11 1.57 1.54 99 1016.5
20210918170030 75 282 0.0 0.0 0.13 1.57 1.54 99 1016.5
20210918165526 75 282 0.0 1.0 0.16 1.57 1.54 99 1016.7
20210918165027 75 282 0.0 1.0 0.17 1.57 1.54 100 1016.7
20210918164529 75 282 0.0 0.0 0.17 1.57 1.54 100 1016.7
20210918164022 75 282 0.0 2.0 0.19 1.57 1.54 100 1017.0
20210918163526 75 282 1.0 2.0 0.25 1.56 1.53 100 1017.0
20210918163033 74 282 0.0 2.0 0.37 1.56 1.53 99 1017.0
20210918162518 74 282 0.0 2.0 0.45 1.56 1.53 100 1017.0
20210918162036 74 282 0.0 0.0 0.52 1.56 1.53 99 1017.0
20210918161518 73 282 0.0 1.0 0.56 1.53 1.50 99 1017.0
20210918161018 73 282 0.0 2.0 0.58 1.50 1.47 99 1016.6
20210918160548 73 282 0.0 2.0 0.61 1.46 1.43 99 1016.6
20210918160035 73 281 0.0 2.0 0.60 1.43 1.40 98 1016.6
20210918155539 73 281 0.0 2.0 0.59 1.41 1.38 98 1016.9
20210918155039 73 286 1.0 2.0 0.59 1.40 1.37 98 1016.9
20210918154526 73 180 0.0 2.0 0.59 1.40 1.37 98 1016.9
20210918154035 73 315 1.0 2.0 0.58 1.38 1.35 98 1017.0
20210918153518 73 315 0.0 2.0 0.50 1.30 1.27 98 1017.0
20210918153033 73 315 0.0 2.0 0.38 1.18 1.15 99 1017.0
20210918152533 73 315 0.0 0.0 0.32 1.11 1.08 99 1017.1
20210918152038 73 315 0.0 1.0 0.24 1.03 1.00 99 1017.1
20210918151523 73 315 0.0 1.0 0.18 0.97 0.94 99 1017.1
20210918151034 73 315 0.0 1.0 0.13 0.91 0.88 99 1017.1
20210918150534 73 315 0.0 1.0 0.08 0.84 0.81 99 1017.1
20210918150024 73 315 0.0 0.0 0.08 0.83 0.80 99 1017.1
20210918145522 73 315 0.0 0.0 0.08 0.82 0.79 99 1016.8
20210918145018 73 315 0.0 1.0 0.08 0.81 0.78 98 1016.8
20210918144529 72 315 0.0 1.0 0.09 0.81 0.78 98 1016.8
20210918144022 72 315 0.0 1.0 0.09 0.80 0.77 98 1016.7
20210918143526 72 315 0.0 1.0 0.10 0.80 0.77 98 1016.7
20210918143029 72 315 0.0 1.0 0.10 0.80 0.77 98 1016.7
20210918142537 72 315 0.0 0.0 0.12 0.79 0.76 98 1016.7
20210918142025 72 315 0.0 1.0 0.13 0.79 0.76 98 1016.7
20210918141526 72 315 0.0 1.0 0.16 0.79 0.76 98 1016.7
20210918141034 72 315 0.0 1.0 0.18 0.78 0.75 98 1016.6
20210918140542 72 315 0.0 1.0 0.17 0.76 0.73 98 1016.6
20210918140028 72 315 0.0 1.0 0.16 0.75 0.72 98 1016.6
20210918135527 72 315 0.0 1.0 0.16 0.74 0.71 98 1016.2
20210918135038 72 315 0.0 1.0 0.18 0.73 0.70 97 1016.2
20210918134529 72 315 0.0 0.0 0.30 0.72 0.69 97 1016.2
20210918134027 72 315 0.0 0.0 0.35 0.71 0.68 97 1016.1
20210918133533 72 315 0.0 1.0 0.41 0.70 0.67 97 1016.1
20210918133029 72 315 0.0 1.0 0.56 0.70 0.67 97 1016.1
20210918132540 72 315 0.0 1.0 0.61 0.67 0.64 97 1016.1
20210918132044 73 315 0.0 1.0 0.61 0.66 0.63 97 1016.1
20210918131533 73 315 1.0 2.0 0.58 0.63 0.60 97 1016.1
20210918131036 73 315 1.0 2.0 0.55 0.60 0.57 97 1016.0
20210918130601 73 315 0.0 1.0 0.54 0.59 0.56 97 1016.0
20210918130048 73 315 0.0 3.0 0.54 0.59 0.56 97 1016.0
20210918125528 73 315 0.0 4.0 0.53 0.58 0.55 98 1016.1
20210918125034 74 315 1.0 4.0 0.51 0.55 0.52 98 1016.1
20210918124536 74 282 0.0 3.0 0.38 0.42 0.39 98 1016.1
20210918124022 74 183 0.0 2.0 0.32 0.36 0.33 98 1016.1
20210918123530 74 182 1.0 2.0 0.24 0.28 0.25 98 1016.1
20210918123020 74 304 1.0 1.0 0.08 0.12 0.09 98 1016.1
20210918122531 74 304 1.0 1.0 0.02 0.06 0.03 98 1015.9
20210918122024 74 305 0.0 0.0 0.01 0.05 0.02 98 1015.9
20210918121525 74 305 0.0 0.0 0.01 0.05 0.02 98 1015.9
20210918121035 74 305 0.0 0.0 0.01 0.05 0.02 98 1015.7
20210918120541 74 305 0.0 0.0 0.01 0.05 0.02 98 1015.7
20210918120036 74 305 0.0 0.0 0.01 0.08 0.02 98 1015.7
20210918115539 74 304 0.0 0.0 0.01 0.08 0.02 98 1015.9
20210918115026 74 305 0.0 0.0 0.00 0.07 0.01 98 1015.9
20210918114531 74 304 0.0 0.0 0.00 0.07 0.01 98 1015.9
20210918114032 74 305 0.0 0.0 0.00 0.07 0.01 98 1016.0
20210918113518 74 304 0.0 0.0 0.00 0.07 0.01 98 1016.0
20210918113032 74 305 0.0 0.0 0.00 0.07 0.01 98 1016.0
20210918112542 74 305 0.0 0.0 0.00 0.07 0.01 98 1016.1
20210918112041 74 305 0.0 0.0 0.00 0.07 0.01 98 1016.1
20210918111530 74 305 0.0 0.0 0.00 0.07 0.01 98 1016.1
20210918111020 73 304 0.0 0.0 0.00 0.07 0.01 98 1016.0
20210918110544 74 305 0.0 0.0 0.00 0.07 0.01 98 1016.0
20210918110016 73 305 0.0 0.0 0.00 0.07 0.01 98 1016.0
20210918105523 74 305 0.0 0.0 0.00 0.07 0.01 98 1015.8
20210918105036 73 305 0.0 0.0 0.00 0.07 0.01 98 1015.8
20210918104517 73 305 0.0 0.0 0.00 0.07 0.01 98 1015.8
20210918104033 73 305 0.0 0.0 0.00 0.07 0.01 98 1015.7
20210918103536 73 305 0.0 0.0 0.00 0.07 0.01 98 1015.7
20210918103036 73 305 0.0 0.0 0.00 0.07 0.01 98 1015.7
20210918102533 73 305 0.0 0.0 0.00 0.07 0.01 98 1015.6
20210918102022 73 305 0.0 0.0 0.00 0.07 0.01 98 1015.6
20210918101524 73 305 0.0 0.0 0.00 0.07 0.01 98 1015.6
20210918101029 73 305 0.0 0.0 0.00 0.07 0.01 98 1015.5
20210918100533 73 305 0.0 0.0 0.00 0.07 0.01 98 1015.5
20210918100023 73 305 0.0 0.0 0.00 0.07 0.01 98 1015.5
20210918095536 74 305 0.0 0.0 0.00 0.07 0.01 98 1015.5
20210918095034 74 305 0.0 0.0 0.00 0.07 0.01 98 1015.5
20210918094538 74 304 0.0 0.0 0.00 0.07 0.01 98 1015.5
20210918094042 74 305 0.0 0.0 0.00 0.07 0.01 98 1015.4
20210918093540 74 304 0.0 0.0 0.00 0.07 0.01 98 1015.4
20210918093036 74 305 0.0 0.0 0.00 0.07 0.01 97 1015.4
20210918092537 74 304 0.0 0.0 0.00 0.07 0.01 98 1015.2
20210918092018 74 305 0.0 0.0 0.00 0.07 0.01 98 1015.2
20210918091535 74 305 0.0 0.0 0.00 0.07 0.01 98 1015.2
20210918091020 74 305 0.0 0.0 0.00 0.07 0.01 98 1015.2
20210918090545 74 305 0.0 0.0 0.00 0.07 0.01 97 1015.2
20210918090025 73 305 0.0 0.0 0.00 0.07 0.01 97 1015.2
20210918085520 74 305 0.0 0.0 0.00 0.07 0.01 97 1015.2
20210918085024 73 305 0.0 0.0 0.00 0.07 0.01 97 1015.2
20210918084515 74 305 0.0 0.0 0.00 0.07 0.01 97 1015.2
20210918084030 74 305 0.0 1.0 0.00 0.07 0.01 97 1015.1
20210918083536 74 304 0.0 1.0 0.00 0.07 0.01 97 1015.1
20210918083017 74 305 0.0 1.0 0.00 0.07 0.01 97 1015.1
20210918082534 74 305 0.0 1.0 0.00 0.07 0.01 97 1015.0
20210918082018 74 304 0.0 0.0 0.00 0.07 0.01 97 1015.0
20210918081544 73 305 0.0 0.0 0.00 0.07 0.01 97 1015.0
20210918081025 73 304 0.0 0.0 0.00 0.07 0.01 97 1015.1
20210918080550 74 305 0.0 1.0 0.00 0.07 0.01 97 1015.1
20210918080038 74 305 0.0 1.0 0.00 0.07 0.01 97 1015.1
20210918075545 74 305 0.0 0.0 0.00 0.07 0.01 97 1015.2
20210918075032 74 304 0.0 1.0 0.00 0.07 0.01 97 1015.2
20210918074534 74 305 0.0 1.0 0.00 0.07 0.01 97 1015.2
20210918074037 74 305 0.0 0.0 0.00 0.07 0.01 97 1015.2
20210918073520 74 305 0.0 0.0 0.00 0.07 0.01 97 1015.2
20210918073020 74 305 0.0 1.0 0.00 0.07 0.01 97 1015.2
20210918072530 74 305 0.0 1.0 0.00 0.07 0.01 97 1015.2
20210918072035 74 305 0.0 0.0 0.00 0.07 0.01 97 1015.2
20210918071528 74 305 0.0 1.0 0.00 0.07 0.01 97 1015.2
20210918071028 74 305 0.0 1.0 0.00 0.07 0.01 97 1015.1
20210918070554 74 305 0.0 0.0 0.00 0.07 0.01 97 1015.1
20210918070027 74 305 0.0 1.0 0.00 0.07 0.01 97 1015.1
20210918065534 74 305 0.0 1.0 0.00 0.07 0.01 97 1015.2
20210918065031 74 305 0.0 0.0 0.00 0.07 0.01 97 1015.2
20210918064031 74 305 0.0 0.0 0.00 0.07 0.01 97 1015.1
20210918063532 74 305 0.0 0.0 0.00 0.07 0.01 97 1015.1
20210918063027 74 305 0.0 0.0 0.01 0.07 0.01 97 1015.1
20210918062527 74 305 0.0 0.0 0.01 0.07 0.01 97 1015.3
20210918062038 74 305 0.0 0.0 0.01 0.07 0.01 97 1015.3
20210918061539 74 305 0.0 0.0 0.01 0.07 0.01 97 1015.3
20210918061021 74 305 0.0 0.0 0.01 0.07 0.01 97 1015.4
20210918060548 74 305 0.0 0.0 0.01 0.07 0.01 97 1015.4
20210918060033 74 305 0.0 0.0 0.01 0.07 0.01 97 1015.4
20210918055533 74 305 0.0 1.0 0.01 0.07 0.01 97 1015.5
20210918055025 75 305 0.0 1.0 0.01 0.07 0.01 97 1015.5
20210918054519 75 305 0.0 1.0 0.01 0.07 0.01 97 1015.5
20210918054018 75 305 0.0 0.0 0.01 0.07 0.01 97 1015.5
20210918053521 75 305 0.0 1.0 0.01 0.07 0.01 97 1015.5
20210918053020 75 305 0.0 1.0 0.00 0.06 0.00 97 1015.5
20210918052538 75 305 0.0 1.0 0.00 0.06 0.00 97 1015.5
20210918052037 75 305 0.0 0.0 0.00 0.06 0.00 97 1015.5
20210918051520 75 305 0.0 0.0 0.00 0.06 0.00 97 1015.5
20210918051036 75 305 0.0 0.0 0.00 0.06 0.00 97 1015.6
20210918050537 75 305 0.0 0.0 0.00 0.06 0.00 97 1015.6
20210918050041 75 305 0.0 0.0 0.00 0.06 0.06 97 1015.6
20210918045541 75 305 0.0 0.0 0.00 0.06 0.06 97 1015.6
20210918045039 75 305 0.0 0.0 0.00 0.06 0.06 97 1015.6
20210918044527 75 305 0.0 0.0 0.00 0.06 0.06 97 1015.6
20210918044037 75 305 0.0 0.0 0.00 0.06 0.06 97 1015.6
20210918043536 75 305 0.0 0.0 0.00 0.06 0.06 96 1015.6
20210918043019 75 305 0.0 0.0 0.00 0.06 0.06 97 1015.6
20210918042535 75 305 0.0 0.0 0.00 0.06 0.06 97 1015.6
20210918042036 75 305 0.0 0.0 0.00 0.06 0.06 97 1015.6
20210918041522 75 305 0.0 0.0 0.00 0.06 0.06 97 1015.6
20210918041020 75 305 0.0 0.0 0.00 0.06 0.06 97 1016.1
20210918040545 75 305 0.0 0.0 0.00 0.06 0.06 97 1016.1
20210918040033 75 305 0.0 0.0 0.00 0.06 0.06 97 1016.1
20210918035525 75 305 0.0 0.0 0.00 0.06 0.06 97 1016.1
20210918035018 75 305 0.0 0.0 0.00 0.06 0.06 97 1016.1
20210918034533 75 305 0.0 0.0 0.00 0.06 0.06 97 1016.1
20210918034033 75 305 0.0 0.0 0.00 0.06 0.06 97 1016.4
20210918033533 75 305 0.0 0.0 0.00 0.06 0.06 97 1016.4
20210918033027 75 305 0.0 0.0 0.00 0.06 0.06 97 1016.4
20210918032529 75 305 0.0 0.0 0.00 0.06 0.06 97 1016.3
20210918032016 75 305 0.0 0.0 0.00 0.06 0.06 97 1016.3
20210918031515 75 305 0.0 0.0 0.00 0.06 0.06 97 1016.3
20210918031033 75 305 0.0 0.0 0.00 0.06 0.06 97 1016.1
20210918030037 75 305 0.0 0.0 0.00 0.06 0.06 97 1016.1
20210918025539 75 305 0.0 0.0 0.00 0.06 0.06 97 1016.0
20210918025038 75 305 0.0 0.0 0.00 0.06 0.06 97 1016.0
20210918024530 75 305 0.0 0.0 0.00 0.06 0.06 97 1016.0
20210918024034 75 305 0.0 0.0 0.00 0.06 0.06 96 1016.0
20210918023534 75 305 0.0 0.0 0.00 0.06 0.06 96 1016.0
20210918023028 75 305 0.0 0.0 0.00 0.06 0.06 96 1016.0
20210918022518 75 305 0.0 0.0 0.00 0.06 0.06 96 1015.9
20210918022024 75 305 0.0 0.0 0.00 0.06 0.06 96 1015.9
20210918021524 75 305 0.0 0.0 0.00 0.06 0.06 96 1015.9
20210918021043 75 305 0.0 0.0 0.00 0.06 0.06 96 1015.5
20210918020535 75 305 0.0 0.0 0.00 0.06 0.06 96 1015.5
20210918020024 75 305 0.0 0.0 0.00 0.06 0.06 96 1015.5
20210918015521 75 305 0.0 0.0 0.00 0.06 0.06 96 1015.7
20210918015019 76 305 0.0 0.0 0.00 0.06 0.06 96 1015.7
20210918014524 76 305 0.0 0.0 0.00 0.06 0.06 96 1015.7
20210918014020 76 305 0.0 0.0 0.00 0.06 0.06 96 1016.1
20210918013534 76 305 0.0 0.0 0.00 0.06 0.06 96 1016.1
20210918013033 76 305 0.0 0.0 0.00 0.06 0.06 96 1016.1
20210918012543 76 305 0.0 0.0 0.00 0.06 0.06 96 1016.0
20210918012029 76 305 0.0 0.0 0.00 0.06 0.06 96 1016.0
20210918011530 76 305 0.0 0.0 0.00 0.06 0.06 95 1016.0
20210918011022 76 305 0.0 0.0 0.00 0.06 0.06 95 1015.5
20210918010039 76 305 0.0 0.0 0.00 0.06 0.06 95 1015.5
20210918005542 76 305 0.0 0.0 0.00 0.06 0.06 95 1015.4
20210918005043 76 305 0.0 0.0 0.00 0.06 0.06 95 1015.4
20210918004529 76 305 0.0 0.0 0.00 0.06 0.06 95 1015.4
20210918004029 76 305 0.0 0.0 0.00 0.06 0.06 95 1015.2
20210918003532 76 305 0.0 0.0 0.00 0.06 0.06 95 1015.2
20210918003020 76 305 0.0 0.0 0.00 0.06 0.06 95 1015.2
20210918002520 76 305 0.0 0.0 0.00 0.06 0.06 95 1015.0
20210918002025 76 305 0.0 0.0 0.00 0.06 0.06 94 1015.0
20210918001044 76 305 0.0 0.0 0.00 0.06 0.06 95 1015.0
20210918000541 77 305 0.0 0.0 0.00 0.06 0.06 94 1015.0
20210918000038 77 305 0.0 0.0 0.00 0.06 0.06 94 1015.0
20210917235528 77 305 0.0 0.0 0.00 0.06 0.06 94 1014.5
20210917235035 77 305 0.0 0.0 0.00 0.06 0.06 94 1014.5
20210917234533 77 305 0.0 0.0 0.00 0.06 0.06 94 1014.5
20210917233533 77 305 0.0 0.0 0.00 0.06 0.06 94 1014.3
20210917233034 77 305 0.0 0.0 0.01 0.06 0.06 94 1014.3
20210917232517 77 305 0.0 0.0 0.01 0.06 0.06 94 1014.7
20210917232019 78 305 0.0 0.0 0.01 0.06 0.06 94 1014.7
20210917231520 78 305 0.0 0.0 0.01 0.06 0.06 94 1014.7
20210917231027 78 305 0.0 0.0 0.01 0.06 0.06 94 1014.7
20210917230534 78 305 0.0 0.0 0.01 0.06 0.06 94 1014.7
20210917230028 78 305 0.0 0.0 0.01 0.06 0.06 94 1014.7
20210917225527 78 305 0.0 0.0 0.01 0.06 0.06 94 1014.6
20210917225017 78 305 0.0 0.0 0.01 0.06 0.06 94 1014.6
20210917224533 78 305 0.0 0.0 0.01 0.06 0.06 94 1014.6
20210917224031 78 305 0.0 0.0 0.01 0.06 0.06 93 1014.5
20210917223520 78 305 0.0 3.0 0.01 0.06 0.06 93 1014.5
20210917223034 79 305 0.0 3.0 0.00 0.05 0.05 93 1014.5
20210917222536 79 224 0.0 0.0 0.00 0.05 0.05 93 1014.5
20210917222022 79 224 0.0 2.0 0.00 0.05 0.05 93 1014.5
20210917221038 79 223 0.0 2.0 0.00 0.05 0.05 92 1014.5
20210917220538 79 223 0.0 3.0 0.01 0.05 0.05 92 1014.5
20210917220029 79 219 0.0 1.0 0.01 0.05 0.05 93 1014.5
20210917215527 79 219 0.0 2.0 0.01 0.05 0.05 93 1014.0
20210917215037 79 219 1.0 2.0 0.02 0.05 0.05 92 1014.0
20210917214537 79 142 0.0 1.0 0.02 0.05 0.05 93 1014.0
20210917214022 80 142 0.0 1.0 0.02 0.05 0.05 92 1014.0
20210917213522 80 142 0.0 0.0 0.02 0.05 0.05 92 1014.0
20210917213030 80 142 0.0 0.0 0.02 0.05 0.05 92 1014.0
20210917212022 80 142 0.0 1.0 0.02 0.05 0.05 91 1014.1
20210917211518 80 142 0.0 1.0 0.02 0.05 0.05 91 1014.1
20210917211021 81 142 0.0 1.0 0.02 0.05 0.05 90 1014.1
20210917210550 81 142 0.0 1.0 0.01 0.04 0.04 89 1014.1
20210917210020 81 142 0.0 3.0 0.01 0.04 0.04 89 1014.1
20210917205532 81 142 0.0 3.0 0.01 0.04 0.04 87 1014.1
20210917205019 81 194 1.0 3.0 0.00 0.03 0.03 84 1014.1
20210917204527 81 194 1.0 4.0 0.00 0.03 0.03 84 1014.1
20210917204027 82 240 2.0 5.0 0.00 0.03 0.03 84 1014.0
20210917203530 82 327 2.0 5.0 0.00 0.03 0.03 85 1014.0
20210917203016 82 185 2.0 6.0 0.00 0.03 0.03 83 1014.0
20210917202525 81 191 3.0 6.0 0.00 0.03 0.03 84 1014.3
20210917202022 81 209 0.0 5.0 0.00 0.03 0.03 87 1014.3
20210917201545 81 200 0.0 5.0 0.00 0.03 0.03 85 1014.3
20210917201044 81 211 1.0 4.0 0.00 0.03 0.03 86 1014.5
20210917200539 81 267 1.0 3.0 0.00 0.03 0.03 88 1014.5
20210917200040 81 193 0.0 2.0 0.00 0.03 0.03 87 1014.5
20210917195532 81 193 0.0 4.0 0.00 0.03 0.03 86 1014.6
20210917195017 81 175 1.0 4.0 0.00 0.03 0.03 84 1014.6
20210917194530 81 192 0.0 3.0 0.00 0.03 0.03 86 1014.6
20210917194017 81 264 1.0 3.0 0.00 0.03 0.03 85 1014.6
20210917193518 82 265 1.0 2.0 0.00 0.03 0.03 85 1014.6
20210917193024 82 273 0.0 3.0 0.00 0.03 0.03 85 1014.6
20210917192537 82 161 1.0 3.0 0.00 0.03 0.03 82 1015.0
20210917192027 82 210 1.0 4.0 0.00 0.03 0.03 83 1015.0
20210917191518 83 153 1.0 4.0 0.00 0.03 0.03 82 1015.0
20210917191023 83 250 1.0 2.0 0.00 0.03 0.03 83 1015.0
20210917190549 83 142 1.0 6.0 0.00 0.03 0.03 82 1015.0